Aviation Digital Data Service (ADDS)

Output produced by METARs form (1116 UTC 17 June 2019)
found at http://www.aviationweather.gov/metar/data/
 
Forecast for: KMYR (MYRTLE BEACH , SC, US)
Text: KMYR 170520Z 1706/1806 21007KT P6SM FEW120
Forecast period: 0600 to 1700 UTC 17 June 2019
Forecast type: FROM: standard forecast or significant change
Winds: from the SSW (210 degrees) at 8 MPH (7 knots; 3.6 m/s)
Visibility: 6 or more miles 10+ km)
Ceiling: at least 12,000 feet AGL
Clouds: few clouds at 12000 feet AGL
Weather: no significant weather forecast for this period
Text: FM171700 18012KT P6SM FEW200
Forecast period: 1700 UTC 17 June 2019 to 0500 UTC 18 June 2019
Forecast type: FROM: standard forecast or significant change
Winds: from the S (180 degrees) at 14 MPH (12 knots; 6.2 m/s)
Visibility: 6 or more miles 10+ km)
Ceiling: at least 12,000 feet AGL
Clouds: few clouds at 20000 feet AGL
Weather: no significant weather forecast for this period
Text: FM180500 21007KT P6SM SCT120
Forecast period: 0500 to 0600 UTC 18 June 2019
Forecast type: FROM: standard forecast or significant change
Winds: from the SSW (210 degrees) at 8 MPH (7 knots; 3.6 m/s)
Visibility: 6 or more miles 10+ km)
Ceiling: at least 12,000 feet AGL
Clouds: scattered clouds at 12000 feet AGL
Weather: no significant weather forecast for this period